sensor_id;sensor_type;location;lat;lon;timestamp;temperature;humidity
53045;DHT22;38930;52.766;6.884;2023-03-01T00:01:19;-2.00;99.90
53045;DHT22;38930;52.766;6.884;2023-03-01T00:03:45;-1.90;99.90
53045;DHT22;38930;52.766;6.884;2023-03-01T00:06:11;-2.40;99.90
53045;DHT22;38930;52.766;6.884;2023-03-01T00:08:37;-1.20;99.90
53045;DHT22;38930;52.766;6.884;2023-03-01T00:13:33;-2.00;99.90
53045;DHT22;38930;52.766;6.884;2023-03-01T00:16:05;-2.00;99.90
53045;DHT22;38930;52.766;6.884;2023-03-01T00:18:31;-2.10;99.90
53045;DHT22;38930;52.766;6.884;2023-03-01T00:20:57;-2.30;99.90
53045;DHT22;38930;52.766;6.884;2023-03-01T00:23:23;-1.80;99.90
53045;DHT22;38930;52.766;6.884;2023-03-01T00:25:50;-2.20;99.90
53045;DHT22;38930;52.766;6.884;2023-03-01T00:28:16;-2.10;99.90
53045;DHT22;38930;52.766;6.884;2023-03-01T00:30:42;-2.10;99.90
53045;DHT22;38930;52.766;6.884;2023-03-01T00:33:08;-2.10;99.90
53045;DHT22;38930;52.766;6.884;2023-03-01T00:35:34;-2.10;99.90
53045;DHT22;38930;52.766;6.884;2023-03-01T00:38:00;-2.10;99.90
53045;DHT22;38930;52.766;6.884;2023-03-01T00:40:27;-2.00;99.90
53045;DHT22;38930;52.766;6.884;2023-03-01T00:42:53;-2.10;99.90
53045;DHT22;38930;52.766;6.884;2023-03-01T00:45:19;-2.10;99.90
53045;DHT22;38930;52.766;6.884;2023-03-01T00:47:44;-1.90;99.90
53045;DHT22;38930;52.766;6.884;2023-03-01T00:50:11;-1.30;99.90
53045;DHT22;38930;52.766;6.884;2023-03-01T00:52:37;-0.80;99.90
53045;DHT22;38930;52.766;6.884;2023-03-01T00:55:03;-2.10;99.90
53045;DHT22;38930;52.766;6.884;2023-03-01T00:57:29;-2.10;99.90
53045;DHT22;38930;52.766;6.884;2023-03-01T00:59:55;-2.20;99.90
53045;DHT22;38930;52.766;6.884;2023-03-01T01:02:21;-2.30;99.90
53045;DHT22;38930;52.766;6.884;2023-03-01T01:04:47;-2.20;99.90
53045;DHT22;38930;52.766;6.884;2023-03-01T01:07:13;-2.90;99.90
53045;DHT22;38930;52.766;6.884;2023-03-01T01:09:39;-2.20;99.90
53045;DHT22;38930;52.766;6.884;2023-03-01T01:12:05;-2.40;99.90
53045;DHT22;38930;52.766;6.884;2023-03-01T01:14:31;-2.20;99.90
53045;DHT22;38930;52.766;6.884;2023-03-01T01:16:57;-1.90;99.90
53045;DHT22;38930;52.766;6.884;2023-03-01T01:19:23;-2.50;99.90
53045;DHT22;38930;52.766;6.884;2023-03-01T01:21:49;-2.30;99.90
53045;DHT22;38930;52.766;6.884;2023-03-01T01:24:15;-2.20;99.90
53045;DHT22;38930;52.766;6.884;2023-03-01T01:26:41;-2.60;99.90
53045;DHT22;38930;52.766;6.884;2023-03-01T01:29:08;-3.20;99.90
53045;DHT22;38930;52.766;6.884;2023-03-01T01:31:35;-1.60;99.90
53045;DHT22;38930;52.766;6.884;2023-03-01T01:34:01;-2.40;99.90
53045;DHT22;38930;52.766;6.884;2023-03-01T01:36:27;-2.40;99.90
53045;DHT22;38930;52.766;6.884;2023-03-01T01:38:53;-2.40;99.90
53045;DHT22;38930;52.766;6.884;2023-03-01T01:41:20;-2.50;99.90
53045;DHT22;38930;52.766;6.884;2023-03-01T01:44:09;-2.60;99.90
53045;DHT22;38930;52.766;6.884;2023-03-01T01:46:49;-2.70;99.90
53045;DHT22;38930;52.766;6.884;2023-03-01T01:49:38;-2.10;99.90
53045;DHT22;38930;52.766;6.884;2023-03-01T01:54:50;-2.20;99.90
53045;DHT22;38930;52.766;6.884;2023-03-01T01:57:21;-2.80;99.90
53045;DHT22;38930;52.766;6.884;2023-03-01T01:59:53;-2.80;99.90
53045;DHT22;38930;52.766;6.884;2023-03-01T02:02:20;-2.90;99.90
53045;DHT22;38930;52.766;6.884;2023-03-01T02:04:48;-2.80;99.90
53045;DHT22;38930;52.766;6.884;2023-03-01T02:07:18;-1.90;99.90
53045;DHT22;38930;52.766;6.884;2023-03-01T02:09:47;-2.70;99.90
53045;DHT22;38930;52.766;6.884;2023-03-01T02:12:15;-3.10;99.90
53045;DHT22;38930;52.766;6.884;2023-03-01T02:14:42;-2.70;99.90
53045;DHT22;38930;52.766;6.884;2023-03-01T02:17:09;-2.80;99.90
53045;DHT22;38930;52.766;6.884;2023-03-01T02:19:55;-2.70;99.90
53045;DHT22;38930;52.766;6.884;2023-03-01T02:22:27;-3.20;99.90
53045;DHT22;38930;52.766;6.884;2023-03-01T02:30:28;-2.80;99.90
53045;DHT22;38930;52.766;6.884;2023-03-01T02:32:56;-2.80;99.90
53045;DHT22;38930;52.766;6.884;2023-03-01T02:35:30;-2.80;99.90
53045;DHT22;38930;52.766;6.884;2023-03-01T02:37:57;-2.80;99.90
53045;DHT22;38930;52.766;6.884;2023-03-01T02:40:30;-2.80;99.90
53045;DHT22;38930;52.766;6.884;2023-03-01T02:42:58;-1.80;99.90
53045;DHT22;38930;52.766;6.884;2023-03-01T02:45:25;-3.30;99.90
53045;DHT22;38930;52.766;6.884;2023-03-01T02:47:53;-3.20;99.90
53045;DHT22;38930;52.766;6.884;2023-03-01T02:55:24;-2.80;99.90
53045;DHT22;38930;52.766;6.884;2023-03-01T02:57:49;-2.80;99.90
53045;DHT22;38930;52.766;6.884;2023-03-01T03:00:26;-2.90;99.90
53045;DHT22;38930;52.766;6.884;2023-03-01T03:02:54;-2.80;99.90
53045;DHT22;38930;52.766;6.884;2023-03-01T03:05:30;-2.70;99.90
53045;DHT22;38930;52.766;6.884;2023-03-01T03:07:56;-1.80;99.90
53045;DHT22;38930;52.766;6.884;2023-03-01T03:10:32;-2.80;99.90
53045;DHT22;38930;52.766;6.884;2023-03-01T03:13:03;-2.90;99.90
53045;DHT22;38930;52.766;6.884;2023-03-01T03:15:29;-2.90;99.90
53045;DHT22;38930;52.766;6.884;2023-03-01T03:17:57;-2.90;99.90
53045;DHT22;38930;52.766;6.884;2023-03-01T03:20:25;-2.90;99.90
53045;DHT22;38930;52.766;6.884;2023-03-01T03:22:53;-2.90;99.90
53045;DHT22;38930;52.766;6.884;2023-03-01T03:25:20;-2.90;99.90
53045;DHT22;38930;52.766;6.884;2023-03-01T03:27:47;-2.90;99.90
53045;DHT22;38930;52.766;6.884;2023-03-01T03:30:16;-3.10;99.90
53045;DHT22;38930;52.766;6.884;2023-03-01T03:32:43;-3.10;99.90
53045;DHT22;38930;52.766;6.884;2023-03-01T03:35:22;-3.10;99.90
53045;DHT22;38930;52.766;6.884;2023-03-01T03:37:50;-3.30;99.90
53045;DHT22;38930;52.766;6.884;2023-03-01T03:40:33;-3.10;99.90
53045;DHT22;38930;52.766;6.884;2023-03-01T03:43:00;-3.10;99.90
53045;DHT22;38930;52.766;6.884;2023-03-01T03:45:26;-2.20;99.90
53045;DHT22;38930;52.766;6.884;2023-03-01T03:47:51;-2.90;99.90
53045;DHT22;38930;52.766;6.884;2023-03-01T03:50:18;-3.40;99.90
53045;DHT22;38930;52.766;6.884;2023-03-01T03:52:44;-3.30;99.90
53045;DHT22;38930;52.766;6.884;2023-03-01T03:55:11;-2.70;99.90
53045;DHT22;38930;52.766;6.884;2023-03-01T03:57:37;-3.30;99.90
53045;DHT22;38930;52.766;6.884;2023-03-01T04:00:04;-3.30;99.90
53045;DHT22;38930;52.766;6.884;2023-03-01T04:02:30;-3.50;99.90
53045;DHT22;38930;52.766;6.884;2023-03-01T04:04:56;-3.60;99.90
53045;DHT22;38930;52.766;6.884;2023-03-01T04:07:22;-3.50;99.90
53045;DHT22;38930;52.766;6.884;2023-03-01T04:09:47;-3.60;99.90
53045;DHT22;38930;52.766;6.884;2023-03-01T04:12:13;-3.70;99.90
53045;DHT22;38930;52.766;6.884;2023-03-01T04:14:38;-2.70;99.90
53045;DHT22;38930;52.766;6.884;2023-03-01T04:17:04;-3.50;99.90
53045;DHT22;38930;52.766;6.884;2023-03-01T04:19:31;-3.10;99.90
53045;DHT22;38930;52.766;6.884;2023-03-01T04:22:02;-3.00;99.90
53045;DHT22;38930;52.766;6.884;2023-03-01T04:24:33;-3.70;99.90
53045;DHT22;38930;52.766;6.884;2023-03-01T04:26:58;-3.50;99.90
53045;DHT22;38930;52.766;6.884;2023-03-01T04:29:24;-3.90;99.90
53045;DHT22;38930;52.766;6.884;2023-03-01T04:31:50;-3.80;99.90
53045;DHT22;38930;52.766;6.884;2023-03-01T04:34:15;-3.50;99.90
53045;DHT22;38930;52.766;6.884;2023-03-01T04:36:41;-3.50;99.90
53045;DHT22;38930;52.766;6.884;2023-03-01T04:39:06;-3.60;99.90
53045;DHT22;38930;52.766;6.884;2023-03-01T04:41:38;-2.20;99.90
53045;DHT22;38930;52.766;6.884;2023-03-01T04:44:08;-3.60;99.90
53045;DHT22;38930;52.766;6.884;2023-03-01T04:46:35;-3.50;99.90
53045;DHT22;38930;52.766;6.884;2023-03-01T04:49:01;-3.80;99.90
53045;DHT22;38930;52.766;6.884;2023-03-01T04:51:27;-3.80;99.90
53045;DHT22;38930;52.766;6.884;2023-03-01T04:53:52;-3.70;99.90
53045;DHT22;38930;52.766;6.884;2023-03-01T04:56:18;-3.20;99.90
53045;DHT22;38930;52.766;6.884;2023-03-01T04:58:44;-3.80;99.90
53045;DHT22;38930;52.766;6.884;2023-03-01T05:01:14;-3.70;99.90
53045;DHT22;38930;52.766;6.884;2023-03-01T05:03:44;-3.80;99.90
53045;DHT22;38930;52.766;6.884;2023-03-01T05:06:10;-3.60;99.90
53045;DHT22;38930;52.766;6.884;2023-03-01T05:08:38;-2.20;99.90
53045;DHT22;38930;52.766;6.884;2023-03-01T05:11:04;-3.60;99.90
53045;DHT22;38930;52.766;6.884;2023-03-01T05:13:30;-3.70;99.90
53045;DHT22;38930;52.766;6.884;2023-03-01T05:15:59;-3.50;99.90
53045;DHT22;38930;52.766;6.884;2023-03-01T05:18:26;-2.30;99.90
53045;DHT22;38930;52.766;6.884;2023-03-01T05:20:53;-3.20;99.90
53045;DHT22;38930;52.766;6.884;2023-03-01T05:23:22;-3.60;99.90
53045;DHT22;38930;52.766;6.884;2023-03-01T05:25:48;-3.80;99.90
53045;DHT22;38930;52.766;6.884;2023-03-01T05:28:15;-4.10;99.90
53045;DHT22;38930;52.766;6.884;2023-03-01T05:30:41;-3.30;99.90
53045;DHT22;38930;52.766;6.884;2023-03-01T05:33:07;-3.50;99.90
53045;DHT22;38930;52.766;6.884;2023-03-01T05:35:42;-3.70;99.90
53045;DHT22;38930;52.766;6.884;2023-03-01T05:38:12;-3.70;99.90
53045;DHT22;38930;52.766;6.884;2023-03-01T05:40:44;-3.50;99.90
53045;DHT22;38930;52.766;6.884;2023-03-01T05:43:11;-3.80;99.90
53045;DHT22;38930;52.766;6.884;2023-03-01T05:45:38;-3.90;99.90
53045;DHT22;38930;52.766;6.884;2023-03-01T05:48:05;-4.00;99.90
53045;DHT22;38930;52.766;6.884;2023-03-01T05:50:36;-3.60;99.90
53045;DHT22;38930;52.766;6.884;2023-03-01T05:53:05;-3.70;99.90
53045;DHT22;38930;52.766;6.884;2023-03-01T05:55:31;-3.80;99.90
53045;DHT22;38930;52.766;6.884;2023-03-01T05:58:02;-2.50;99.90
53045;DHT22;38930;52.766;6.884;2023-03-01T06:00:29;-3.70;99.90
53045;DHT22;38930;52.766;6.884;2023-03-01T06:02:55;-3.70;99.90
53045;DHT22;38930;52.766;6.884;2023-03-01T06:05:21;-3.40;99.90
53045;DHT22;38930;52.766;6.884;2023-03-01T06:07:48;-3.20;99.90
53045;DHT22;38930;52.766;6.884;2023-03-01T06:10:14;-2.20;99.90
53045;DHT22;38930;52.766;6.884;2023-03-01T06:12:41;-4.10;99.90
53045;DHT22;38930;52.766;6.884;2023-03-01T06:15:09;-4.30;99.90
53045;DHT22;38930;52.766;6.884;2023-03-01T06:17:36;-3.90;99.90
53045;DHT22;38930;52.766;6.884;2023-03-01T06:20:09;-4.30;99.90
53045;DHT22;38930;52.766;6.884;2023-03-01T06:22:35;-4.00;99.90
53045;DHT22;38930;52.766;6.884;2023-03-01T06:25:01;-2.10;99.90
53045;DHT22;38930;52.766;6.884;2023-03-01T06:27:27;-4.20;99.90
53045;DHT22;38930;52.766;6.884;2023-03-01T06:29:52;-3.90;99.90
53045;DHT22;38930;52.766;6.884;2023-03-01T06:32:18;-3.90;99.90
53045;DHT22;38930;52.766;6.884;2023-03-01T06:34:44;-3.30;99.90
53045;DHT22;38930;52.766;6.884;2023-03-01T06:37:09;-4.30;99.90
53045;DHT22;38930;52.766;6.884;2023-03-01T06:39:35;-4.00;99.90
53045;DHT22;38930;52.766;6.884;2023-03-01T06:42:01;-3.30;99.90
53045;DHT22;38930;52.766;6.884;2023-03-01T06:44:27;-3.50;99.90
53045;DHT22;38930;52.766;6.884;2023-03-01T06:46:52;-3.50;99.90
53045;DHT22;38930;52.766;6.884;2023-03-01T06:49:23;-4.00;99.90
53045;DHT22;38930;52.766;6.884;2023-03-01T06:51:49;-3.80;99.90
53045;DHT22;38930;52.766;6.884;2023-03-01T06:54:15;-4.20;99.90
53045;DHT22;38930;52.766;6.884;2023-03-01T06:56:40;-4.10;99.90
53045;DHT22;38930;52.766;6.884;2023-03-01T06:59:06;-4.10;99.90
53045;DHT22;38930;52.766;6.884;2023-03-01T07:01:31;-1.50;99.90
53045;DHT22;38930;52.766;6.884;2023-03-01T07:03:57;-4.50;99.90
53045;DHT22;38930;52.766;6.884;2023-03-01T07:06:23;-4.00;99.90
53045;DHT22;38930;52.766;6.884;2023-03-01T07:08:49;-3.80;99.90
53045;DHT22;38930;52.766;6.884;2023-03-01T07:11:15;-1.90;99.90
53045;DHT22;38930;52.766;6.884;2023-03-01T07:13:40;-3.10;99.90
53045;DHT22;38930;52.766;6.884;2023-03-01T07:16:06;-2.30;99.90
53045;DHT22;38930;52.766;6.884;2023-03-01T07:18:32;-3.60;99.90
53045;DHT22;38930;52.766;6.884;2023-03-01T07:20:57;-3.50;99.90
53045;DHT22;38930;52.766;6.884;2023-03-01T07:23:23;-3.50;99.90
53045;DHT22;38930;52.766;6.884;2023-03-01T07:25:53;-3.30;99.90
53045;DHT22;38930;52.766;6.884;2023-03-01T07:28:19;-3.30;99.90
53045;DHT22;38930;52.766;6.884;2023-03-01T07:30:45;-3.40;99.90
53045;DHT22;38930;52.766;6.884;2023-03-01T07:33:10;-1.40;99.90
53045;DHT22;38930;52.766;6.884;2023-03-01T07:35:36;-1.40;99.90
53045;DHT22;38930;52.766;6.884;2023-03-01T07:38:02;-3.20;99.90
53045;DHT22;38930;52.766;6.884;2023-03-01T07:40:27;-2.10;99.90
53045;DHT22;38930;52.766;6.884;2023-03-01T07:42:57;-3.10;99.90
53045;DHT22;38930;52.766;6.884;2023-03-01T07:45:23;-3.00;99.90
53045;DHT22;38930;52.766;6.884;2023-03-01T07:47:51;-2.30;99.90
53045;DHT22;38930;52.766;6.884;2023-03-01T07:50:17;-1.80;99.90
53045;DHT22;38930;52.766;6.884;2023-03-01T07:52:45;-2.40;99.90
53045;DHT22;38930;52.766;6.884;2023-03-01T07:55:11;-1.80;99.90
53045;DHT22;38930;52.766;6.884;2023-03-01T07:57:37;-2.20;99.90
53045;DHT22;38930;52.766;6.884;2023-03-01T08:00:03;-1.20;99.90
53045;DHT22;38930;52.766;6.884;2023-03-01T08:02:29;-1.60;99.90
53045;DHT22;38930;52.766;6.884;2023-03-01T08:04:55;-0.80;99.90
53045;DHT22;38930;52.766;6.884;2023-03-01T08:07:20;-0.70;99.90
53045;DHT22;38930;52.766;6.884;2023-03-01T08:09:46;-1.20;99.90
53045;DHT22;38930;52.766;6.884;2023-03-01T08:12:12;-0.20;99.90
53045;DHT22;38930;52.766;6.884;2023-03-01T08:14:37;0.90;99.90
53045;DHT22;38930;52.766;6.884;2023-03-01T08:17:03;-0.70;99.90
53045;DHT22;38930;52.766;6.884;2023-03-01T08:19:28;0.40;99.90
53045;DHT22;38930;52.766;6.884;2023-03-01T08:21:54;-0.30;99.90
53045;DHT22;38930;52.766;6.884;2023-03-01T08:24:23;-0.30;99.90
53045;DHT22;38930;52.766;6.884;2023-03-01T08:26:49;0.00;99.90
53045;DHT22;38930;52.766;6.884;2023-03-01T08:29:15;0.00;99.90
53045;DHT22;38930;52.766;6.884;2023-03-01T08:31:40;0.20;99.90
53045;DHT22;38930;52.766;6.884;2023-03-01T08:34:16;0.30;99.90
53045;DHT22;38930;52.766;6.884;2023-03-01T08:36:43;0.40;99.90
53045;DHT22;38930;52.766;6.884;2023-03-01T08:39:11;0.60;99.90
53045;DHT22;38930;52.766;6.884;2023-03-01T08:41:37;0.60;99.90
53045;DHT22;38930;52.766;6.884;2023-03-01T08:44:03;1.20;99.90
53045;DHT22;38930;52.766;6.884;2023-03-01T08:46:32;1.10;99.90
53045;DHT22;38930;52.766;6.884;2023-03-01T08:48:58;1.30;99.90
53045;DHT22;38930;52.766;6.884;2023-03-01T08:51:24;1.40;99.90
53045;DHT22;38930;52.766;6.884;2023-03-01T08:53:50;1.70;99.90
53045;DHT22;38930;52.766;6.884;2023-03-01T08:56:17;1.40;99.90
53045;DHT22;38930;52.766;6.884;2023-03-01T08:58:47;2.10;99.90
53045;DHT22;38930;52.766;6.884;2023-03-01T09:01:18;2.20;99.90
53045;DHT22;38930;52.766;6.884;2023-03-01T09:03:44;2.40;99.90
53045;DHT22;38930;52.766;6.884;2023-03-01T09:06:10;2.60;99.90
53045;DHT22;38930;52.766;6.884;2023-03-01T09:08:37;2.70;99.90
53045;DHT22;38930;52.766;6.884;2023-03-01T09:11:04;2.90;99.90
53045;DHT22;38930;52.766;6.884;2023-03-01T09:13:31;3.00;99.90
53045;DHT22;38930;52.766;6.884;2023-03-01T09:15:57;3.20;99.90
53045;DHT22;38930;52.766;6.884;2023-03-01T09:18:23;3.30;99.90
53045;DHT22;38930;52.766;6.884;2023-03-01T09:20:49;3.40;99.90
53045;DHT22;38930;52.766;6.884;2023-03-01T09:23:15;3.60;99.90
53045;DHT22;38930;52.766;6.884;2023-03-01T09:25:40;3.60;99.90
53045;DHT22;38930;52.766;6.884;2023-03-01T09:28:06;3.70;99.90
53045;DHT22;38930;52.766;6.884;2023-03-01T09:30:32;3.80;99.90
53045;DHT22;38930;52.766;6.884;2023-03-01T09:32:57;3.90;99.90
53045;DHT22;38930;52.766;6.884;2023-03-01T09:35:23;3.90;99.90
53045;DHT22;38930;52.766;6.884;2023-03-01T09:37:49;4.00;99.90
53045;DHT22;38930;52.766;6.884;2023-03-01T09:40:21;4.10;99.90
53045;DHT22;38930;52.766;6.884;2023-03-01T09:43:08;4.20;99.90
53045;DHT22;38930;52.766;6.884;2023-03-01T09:45:37;4.20;99.90
53045;DHT22;38930;52.766;6.884;2023-03-01T09:48:07;4.30;99.90
53045;DHT22;38930;52.766;6.884;2023-03-01T09:50:38;4.40;99.90
53045;DHT22;38930;52.766;6.884;2023-03-01T09:53:15;4.40;99.90
53045;DHT22;38930;52.766;6.884;2023-03-01T09:56:02;4.60;99.90
53045;DHT22;38930;52.766;6.884;2023-03-01T10:03:41;4.60;99.90
53045;DHT22;38930;52.766;6.884;2023-03-01T10:06:23;4.70;99.90
53045;DHT22;38930;52.766;6.884;2023-03-01T10:11:37;4.70;99.90
53045;DHT22;38930;52.766;6.884;2023-03-01T10:14:33;4.70;99.90
53045;DHT22;38930;52.766;6.884;2023-03-01T10:17:04;4.80;99.90
53045;DHT22;38930;52.766;6.884;2023-03-01T10:19:40;4.80;99.90
53045;DHT22;38930;52.766;6.884;2023-03-01T10:22:21;4.90;99.90
53045;DHT22;38930;52.766;6.884;2023-03-01T10:24:50;4.90;99.90
53045;DHT22;38930;52.766;6.884;2023-03-01T10:27:29;4.90;99.90
53045;DHT22;38930;52.766;6.884;2023-03-01T10:32:45;5.10;99.90
53045;DHT22;38930;52.766;6.884;2023-03-01T10:35:19;5.20;99.90
53045;DHT22;38930;52.766;6.884;2023-03-01T10:38:12;5.30;99.90
53045;DHT22;38930;52.766;6.884;2023-03-01T10:40:54;5.40;99.90
53045;DHT22;38930;52.766;6.884;2023-03-01T10:43:22;5.50;99.90
53045;DHT22;38930;52.766;6.884;2023-03-01T10:45:48;5.50;99.90
53045;DHT22;38930;52.766;6.884;2023-03-01T10:48:20;5.50;99.90
53045;DHT22;38930;52.766;6.884;2023-03-01T10:50:51;5.50;99.90
53045;DHT22;38930;52.766;6.884;2023-03-01T10:53:41;6.30;99.90
53045;DHT22;38930;52.766;6.884;2023-03-01T10:56:10;5.60;99.90
53045;DHT22;38930;52.766;6.884;2023-03-01T10:58:41;6.50;99.90
53045;DHT22;38930;52.766;6.884;2023-03-01T11:06:31;5.80;99.90
53045;DHT22;38930;52.766;6.884;2023-03-01T11:09:22;5.80;99.90
53045;DHT22;38930;52.766;6.884;2023-03-01T11:12:00;5.90;99.90
53045;DHT22;38930;52.766;6.884;2023-03-01T11:14:46;6.00;99.90
53045;DHT22;38930;52.766;6.884;2023-03-01T11:17:21;6.10;99.90
53045;DHT22;38930;52.766;6.884;2023-03-01T11:22:45;6.30;99.90
53045;DHT22;38930;52.766;6.884;2023-03-01T11:25:13;6.30;99.90
53045;DHT22;38930;52.766;6.884;2023-03-01T11:27:44;6.30;99.90
53045;DHT22;38930;52.766;6.884;2023-03-01T11:30:27;6.40;99.90
53045;DHT22;38930;52.766;6.884;2023-03-01T11:33:16;6.40;99.90
53045;DHT22;38930;52.766;6.884;2023-03-01T11:38:35;6.50;99.90
53045;DHT22;38930;52.766;6.884;2023-03-01T11:41:12;6.50;99.90
53045;DHT22;38930;52.766;6.884;2023-03-01T11:43:55;6.60;99.90
53045;DHT22;38930;52.766;6.884;2023-03-01T11:54:04;6.90;99.90
53045;DHT22;38930;52.766;6.884;2023-03-01T11:56:47;6.90;99.90
53045;DHT22;38930;52.766;6.884;2023-03-01T12:02:28;7.00;99.90
53045;DHT22;38930;52.766;6.884;2023-03-01T12:05:23;7.10;99.90
53045;DHT22;38930;52.766;6.884;2023-03-01T12:08:05;7.20;99.90
53045;DHT22;38930;52.766;6.884;2023-03-01T12:10:56;7.30;99.90
53045;DHT22;38930;52.766;6.884;2023-03-01T12:22:21;7.60;99.90
53045;DHT22;38930;52.766;6.884;2023-03-01T12:38:30;7.80;99.90
53045;DHT22;38930;52.766;6.884;2023-03-01T12:50:14;7.70;99.90
53045;DHT22;38930;52.766;6.884;2023-03-01T12:52:53;7.70;99.90
53045;DHT22;38930;52.766;6.884;2023-03-01T12:55:38;7.80;99.90
53045;DHT22;38930;52.766;6.884;2023-03-01T13:01:05;7.80;99.90
53045;DHT22;38930;52.766;6.884;2023-03-01T13:04:12;7.90;99.90
53045;DHT22;38930;52.766;6.884;2023-03-01T13:07:16;8.00;99.90
53045;DHT22;38930;52.766;6.884;2023-03-01T13:17:48;7.70;99.90
53045;DHT22;38930;52.766;6.884;2023-03-01T13:20:18;7.80;99.90
53045;DHT22;38930;52.766;6.884;2023-03-01T13:22:46;7.70;99.90
53045;DHT22;38930;52.766;6.884;2023-03-01T13:25:19;7.70;99.90
53045;DHT22;38930;52.766;6.884;2023-03-01T13:27:46;7.80;99.90
53045;DHT22;38930;52.766;6.884;2023-03-01T13:36:00;7.80;99.90
53045;DHT22;38930;52.766;6.884;2023-03-01T13:38:46;7.70;99.90
53045;DHT22;38930;52.766;6.884;2023-03-01T13:41:17;7.70;99.90
53045;DHT22;38930;52.766;6.884;2023-03-01T13:46:51;7.70;99.90
53045;DHT22;38930;52.766;6.884;2023-03-01T13:49:23;7.70;99.90
53045;DHT22;38930;52.766;6.884;2023-03-01T13:51:51;7.70;99.90
53045;DHT22;38930;52.766;6.884;2023-03-01T13:54:29;7.70;99.90
53045;DHT22;38930;52.766;6.884;2023-03-01T13:56:57;7.70;99.90
53045;DHT22;38930;52.766;6.884;2023-03-01T13:59:23;7.70;99.90
53045;DHT22;38930;52.766;6.884;2023-03-01T14:01:56;7.60;99.90
53045;DHT22;38930;52.766;6.884;2023-03-01T14:04:32;7.60;99.90
53045;DHT22;38930;52.766;6.884;2023-03-01T14:07:17;7.60;99.90
53045;DHT22;38930;52.766;6.884;2023-03-01T14:09:45;7.70;99.90
53045;DHT22;38930;52.766;6.884;2023-03-01T14:12:26;7.70;99.90
53045;DHT22;38930;52.766;6.884;2023-03-01T14:15:26;7.70;99.90
53045;DHT22;38930;52.766;6.884;2023-03-01T14:20:39;7.70;99.90
53045;DHT22;38930;52.766;6.884;2023-03-01T14:23:11;7.70;99.90
53045;DHT22;38930;52.766;6.884;2023-03-01T14:25:38;7.70;99.90
53045;DHT22;38930;52.766;6.884;2023-03-01T14:28:18;7.60;99.90
53045;DHT22;38930;52.766;6.884;2023-03-01T14:30:48;7.60;99.90
53045;DHT22;38930;52.766;6.884;2023-03-01T14:33:33;7.50;99.90
53045;DHT22;38930;52.766;6.884;2023-03-01T14:36:10;7.50;99.90
53045;DHT22;38930;52.766;6.884;2023-03-01T14:38:37;7.50;99.90
53045;DHT22;38930;52.766;6.884;2023-03-01T14:41:24;7.50;99.90
53045;DHT22;38930;52.766;6.884;2023-03-01T14:43:52;7.50;99.90
53045;DHT22;38930;52.766;6.884;2023-03-01T14:46:33;7.50;99.90
53045;DHT22;38930;52.766;6.884;2023-03-01T14:49:05;7.50;99.90
53045;DHT22;38930;52.766;6.884;2023-03-01T14:51:38;7.50;99.90
53045;DHT22;38930;52.766;6.884;2023-03-01T14:54:27;7.50;99.90
53045;DHT22;38930;52.766;6.884;2023-03-01T14:56:54;7.60;99.90
53045;DHT22;38930;52.766;6.884;2023-03-01T14:59:23;7.40;99.90
53045;DHT22;38930;52.766;6.884;2023-03-01T15:01:50;7.40;99.90
53045;DHT22;38930;52.766;6.884;2023-03-01T15:04:17;7.20;99.90
53045;DHT22;38930;52.766;6.884;2023-03-01T15:06:43;7.20;99.90
53045;DHT22;38930;52.766;6.884;2023-03-01T15:09:14;7.20;99.90
53045;DHT22;38930;52.766;6.884;2023-03-01T15:11:42;7.20;99.90
53045;DHT22;38930;52.766;6.884;2023-03-01T15:14:27;7.20;99.90
53045;DHT22;38930;52.766;6.884;2023-03-01T15:16:53;7.60;99.90
53045;DHT22;38930;52.766;6.884;2023-03-01T15:19:20;7.20;99.90
53045;DHT22;38930;52.766;6.884;2023-03-01T15:21:48;7.20;99.90
53045;DHT22;38930;52.766;6.884;2023-03-01T15:24:22;7.40;99.90
53045;DHT22;38930;52.766;6.884;2023-03-01T15:26:59;7.20;99.90
53045;DHT22;38930;52.766;6.884;2023-03-01T15:29:33;7.20;99.90
53045;DHT22;38930;52.766;6.884;2023-03-01T15:32:27;7.20;99.90
53045;DHT22;38930;52.766;6.884;2023-03-01T15:34:53;7.10;99.90
53045;DHT22;38930;52.766;6.884;2023-03-01T15:37:44;8.10;99.90
53045;DHT22;38930;52.766;6.884;2023-03-01T15:40:24;7.00;99.90
53045;DHT22;38930;52.766;6.884;2023-03-01T15:43:01;7.00;99.90
53045;DHT22;38930;52.766;6.884;2023-03-01T15:45:29;7.00;99.90
53045;DHT22;38930;52.766;6.884;2023-03-01T15:48:03;7.00;99.90
53045;DHT22;38930;52.766;6.884;2023-03-01T15:50:32;7.00;99.90
53045;DHT22;38930;52.766;6.884;2023-03-01T15:52:59;7.00;99.90
53045;DHT22;38930;52.766;6.884;2023-03-01T15:55:28;7.00;99.90
53045;DHT22;38930;52.766;6.884;2023-03-01T15:58:00;6.90;99.90
53045;DHT22;38930;52.766;6.884;2023-03-01T16:00:27;6.90;99.90
53045;DHT22;38930;52.766;6.884;2023-03-01T16:02:52;6.90;99.90
53045;DHT22;38930;52.766;6.884;2023-03-01T16:05:25;6.80;99.90
53045;DHT22;38930;52.766;6.884;2023-03-01T16:07:52;6.70;99.90
53045;DHT22;38930;52.766;6.884;2023-03-01T16:10:18;6.70;99.90
53045;DHT22;38930;52.766;6.884;2023-03-01T16:12:44;6.60;99.90
53045;DHT22;38930;52.766;6.884;2023-03-01T16:15:23;6.60;99.90
53045;DHT22;38930;52.766;6.884;2023-03-01T16:17:49;6.60;99.90
53045;DHT22;38930;52.766;6.884;2023-03-01T16:20:15;6.50;99.90
53045;DHT22;38930;52.766;6.884;2023-03-01T16:22:45;6.40;99.90
53045;DHT22;38930;52.766;6.884;2023-03-01T16:25:13;6.70;99.90
53045;DHT22;38930;52.766;6.884;2023-03-01T16:27:42;6.40;99.90
53045;DHT22;38930;52.766;6.884;2023-03-01T16:30:08;6.30;99.90
53045;DHT22;38930;52.766;6.884;2023-03-01T16:32:41;6.30;99.90
53045;DHT22;38930;52.766;6.884;2023-03-01T16:35:08;6.20;99.90
53045;DHT22;38930;52.766;6.884;2023-03-01T16:37:35;6.20;99.90
53045;DHT22;38930;52.766;6.884;2023-03-01T16:40:01;6.10;99.90
53045;DHT22;38930;52.766;6.884;2023-03-01T16:42:35;7.00;99.90
53045;DHT22;38930;52.766;6.884;2023-03-01T16:45:02;6.00;99.90
53045;DHT22;38930;52.766;6.884;2023-03-01T16:47:28;5.90;99.90
53045;DHT22;38930;52.766;6.884;2023-03-01T16:49:54;5.80;99.90
53045;DHT22;38930;52.766;6.884;2023-03-01T16:52:21;5.80;99.90
53045;DHT22;38930;52.766;6.884;2023-03-01T16:54:46;5.70;99.90
53045;DHT22;38930;52.766;6.884;2023-03-01T16:57:12;5.60;99.90
53045;DHT22;38930;52.766;6.884;2023-03-01T16:59:38;5.90;99.90
53045;DHT22;38930;52.766;6.884;2023-03-01T17:02:04;5.50;99.90
53045;DHT22;38930;52.766;6.884;2023-03-01T17:04:32;5.40;99.90
53045;DHT22;38930;52.766;6.884;2023-03-01T17:06:57;5.30;99.90
53045;DHT22;38930;52.766;6.884;2023-03-01T17:10:02;5.20;99.90
53045;DHT22;38930;52.766;6.884;2023-03-01T17:12:29;5.10;99.90
53045;DHT22;38930;52.766;6.884;2023-03-01T17:14:55;5.00;99.90
53045;DHT22;38930;52.766;6.884;2023-03-01T17:17:21;5.00;99.90
53045;DHT22;38930;52.766;6.884;2023-03-01T17:19:47;4.90;99.90
53045;DHT22;38930;52.766;6.884;2023-03-01T17:22:12;4.90;99.90
53045;DHT22;38930;52.766;6.884;2023-03-01T17:24:39;4.80;99.90
53045;DHT22;38930;52.766;6.884;2023-03-01T17:27:06;4.80;99.90
53045;DHT22;38930;52.766;6.884;2023-03-01T17:29:32;4.70;99.90
53045;DHT22;38930;52.766;6.884;2023-03-01T17:31:58;4.60;99.90
53045;DHT22;38930;52.766;6.884;2023-03-01T17:34:24;4.70;99.90
53045;DHT22;38930;52.766;6.884;2023-03-01T17:36:50;4.50;99.90